Time;durP1;ratioP1;P1;durP2;ratioP2;P2;SDS_P1;SDS_P2;PMS_P1;PMS_P2;Temp;Humidity;BMP_temperature;BMP_pressure;BME280_temperature;BME280_humidity;BME280_pressure;Samples;Min_cycle;Max_cycle;Signal;HPM_P1;HPM_P2
2021/07/15 00:01:31;;;;;;;5.18;3.72;;;;;;;-147.90;100.00;59510.75;4994223;28;20415;-87
2021/07/15 00:03:57;;;;;;;6.07;3.20;;;;;;;-147.90;100.00;59510.75;5009763;28;20073;-87
2021/07/15 00:06:25;;;;;;;7.45;4.35;;;;;;;-147.90;100.00;59510.75;5014122;28;20107;-87
2021/07/15 00:08:52;;;;;;;4.63;3.30;;;;;;;-147.90;100.00;59510.75;5013583;28;20534;-87
2021/07/15 00:11:19;;;;;;;4.32;2.83;;;;;;;-147.90;100.00;59510.75;5013511;28;20054;-87
2021/07/15 00:13:46;;;;;;;4.72;2.95;;;;;;;-147.90;100.00;59510.75;5013436;28;20085;-87
2021/07/15 00:16:14;;;;;;;8.57;2.72;;;;;;;-147.90;100.00;59510.75;5013303;28;20049;-87
2021/07/15 00:18:45;;;;;;;5.32;2.85;;;;;;;-147.90;100.00;59510.75;5013658;28;20100;-87
2021/07/15 00:21:14;;;;;;;4.70;2.67;;;;;;;-147.90;100.00;59510.75;5013493;28;20050;-88
2021/07/15 00:23:43;;;;;;;4.07;2.90;;;;;;;-147.90;100.00;59510.75;5009021;28;20473;-87
2021/07/15 00:26:11;;;;;;;7.50;2.58;;;;;;;-147.90;100.00;59510.75;4993744;28;20061;-88
2021/07/15 00:28:38;;;;;;;4.32;2.75;;;;;;;-147.90;100.00;59510.75;4992209;28;20046;-88
2021/07/15 00:31:06;;;;;;;5.68;3.35;;;;;;;-147.90;100.00;59510.75;5010429;28;20060;-88
2021/07/15 00:33:33;;;;;;;4.38;2.97;;;;;;;-147.90;100.00;59510.75;5012786;28;20515;-87
2021/07/15 00:36:00;;;;;;;6.57;3.65;;;;;;;-147.90;100.00;59510.75;5013087;28;20061;-87
2021/07/15 00:38:28;;;;;;;6.07;3.30;;;;;;;-147.90;100.00;59510.75;5013563;28;20057;-87
2021/07/15 00:40:56;;;;;;;4.13;3.33;;;;;;;-147.90;100.00;59510.75;5013075;28;20054;-88
2021/07/15 00:43:24;;;;;;;3.17;2.80;;;;;;;-147.90;100.00;59510.75;5013247;28;20169;-87
2021/07/15 00:45:51;;;;;;;3.70;2.60;;;;;;;-147.90;100.00;59510.75;5013021;28;20525;-87
2021/07/15 00:48:18;;;;;;;11.05;3.88;;;;;;;-147.90;100.00;59510.75;5012922;28;20050;-88
2021/07/15 00:50:45;;;;;;;3.53;2.47;;;;;;;-147.90;100.00;59510.75;5013159;28;20057;-87
2021/07/15 00:53:14;;;;;;;3.83;2.53;;;;;;;-147.90;100.00;59510.75;5013050;28;20054;-87
2021/07/15 00:55:43;;;;;;;5.85;4.20;;;;;;;-147.90;100.00;59510.75;5012890;28;20054;-87
2021/07/15 00:58:13;;;;;;;3.90;2.65;;;;;;;-147.90;100.00;59510.75;5012763;28;20065;-87
2021/07/15 01:00:42;;;;;;;5.47;3.90;;;;;;;-147.90;100.00;59510.75;5012891;28;20050;-87
2021/07/15 01:03:10;;;;;;;5.38;4.03;;;;;;;-147.90;100.00;59510.75;5012608;28;20057;-87
2021/07/15 01:05:39;;;;;;;5.70;2.72;;;;;;;-147.90;100.00;59510.75;5012974;28;20049;-87
2021/07/15 01:08:07;;;;;;;5.78;3.80;;;;;;;-147.90;100.00;59510.75;5012930;28;20076;-88
2021/07/15 01:10:36;;;;;;;6.75;3.10;;;;;;;-147.90;100.00;59510.75;5012664;28;20081;-87
2021/07/15 01:13:14;;;;;;;3.90;3.20;;;;;;;-147.90;100.00;59510.75;5012544;28;20104;-87
2021/07/15 01:15:52;;;;;;;4.97;3.17;;;;;;;-147.90;100.00;59510.75;5012671;28;20054;-87
2021/07/15 01:18:32;;;;;;;5.82;3.45;;;;;;;-147.90;100.00;59510.75;5012381;28;20391;-87
2021/07/15 01:21:43;;;;;;;5.07;3.20;;;;;;;-147.90;100.00;59510.75;5012608;28;20050;-87
2021/07/15 01:24:33;;;;;;;5.28;3.17;;;;;;;-147.90;100.00;59510.75;4977033;28;20108;-87
2021/07/15 01:27:16;;;;;;;4.85;2.95;;;;;;;-147.90;100.00;59510.75;5012099;28;20056;-87
2021/07/15 01:30:06;;;;;;;5.45;3.58;;;;;;;-147.90;100.00;59510.75;5012249;28;20392;-87
2021/07/15 01:32:39;;;;;;;4.93;3.17;;;;;;;-147.90;100.00;59510.75;5012081;28;20540;-87
2021/07/15 01:35:10;;;;;;;4.53;3.35;;;;;;;-147.90;100.00;59510.75;5012087;28;20060;-87
2021/07/15 01:37:39;;;;;;;4.82;3.28;;;;;;;-147.90;100.00;59510.75;5012215;28;20046;-87
2021/07/15 01:40:10;;;;;;;4.38;3.00;;;;;;;-147.90;100.00;59510.75;5011761;28;20042;-87
2021/07/15 01:42:39;;;;;;;6.82;3.67;;;;;;;-147.90;100.00;59510.75;5011859;28;20108;-87
2021/07/15 01:45:09;;;;;;;5.55;3.35;;;;;;;-147.90;100.00;59510.75;5012115;28;20057;-87
2021/07/15 01:47:36;;;;;;;7.72;3.97;;;;;;;-147.90;100.00;59510.75;5011710;28;20108;-87
2021/07/15 01:50:05;;;;;;;6.97;3.45;;;;;;;-147.90;100.00;59510.75;5011864;28;20050;-87
2021/07/15 01:52:31;;;;;;;5.43;3.47;;;;;;;-147.90;100.00;59510.75;5011733;28;20535;-87
2021/07/15 01:54:58;;;;;;;5.88;3.65;;;;;;;-147.90;100.00;59510.75;5011637;28;20054;-88
2021/07/15 01:57:27;;;;;;;7.07;4.32;;;;;;;-147.90;100.00;59510.75;5011942;28;20058;-87
2021/07/15 01:59:56;;;;;;;6.38;3.10;;;;;;;-147.90;100.00;59510.75;5011623;28;20410;-87
2021/07/15 02:02:27;;;;;;;6.05;3.25;;;;;;;-147.90;100.00;59510.75;5011733;28;20491;-88
2021/07/15 02:04:56;;;;;;;5.32;3.15;;;;;;;-147.90;100.00;59510.75;5011789;28;20434;-88
2021/07/15 02:07:25;;;;;;;5.13;3.65;;;;;;;-147.90;100.00;59510.75;5011406;28;20050;-88
2021/07/15 02:09:55;;;;;;;5.68;3.55;;;;;;;-147.90;100.00;59510.75;5011536;28;20046;-88
2021/07/15 02:12:23;;;;;;;4.78;3.10;;;;;;;-147.90;100.00;59510.75;5011408;28;20053;-88
2021/07/15 02:14:53;;;;;;;4.22;2.42;;;;;;;-147.90;100.00;59510.75;5011566;28;20042;-88
2021/07/15 02:17:21;;;;;;;4.30;3.40;;;;;;;-147.90;100.00;59510.75;5011419;28;20053;-88
2021/07/15 02:19:50;;;;;;;5.03;3.53;;;;;;;-147.90;100.00;59510.75;5011390;28;20057;-89
2021/07/15 02:22:19;;;;;;;4.85;2.88;;;;;;;-147.90;100.00;59510.75;5011486;28;20096;-87
2021/07/15 02:24:48;;;;;;;4.15;3.53;;;;;;;-147.90;100.00;59510.75;5011278;28;20077;-88
2021/07/15 02:27:17;;;;;;;6.25;4.10;;;;;;;-147.90;100.00;59510.75;5011137;28;20070;-87
2021/07/15 02:29:44;;;;;;;6.80;3.95;;;;;;;-147.90;100.00;59510.75;5011448;28;20054;-88
2021/07/15 02:32:14;;;;;;;2.85;2.53;;;;;;;-147.90;100.00;59510.75;5011104;28;20049;-88
2021/07/15 02:34:52;;;;;;;5.93;3.78;;;;;;;-147.90;100.00;59510.75;5011151;28;20053;-87
2021/07/15 02:37:25;;;;;;;3.70;2.80;;;;;;;-147.90;100.00;59510.75;5011129;28;20490;-88
2021/07/15 02:39:52;;;;;;;4.80;2.83;;;;;;;-147.90;100.00;59510.75;5011060;28;20145;-88
2021/07/15 02:42:19;;;;;;;6.47;4.65;;;;;;;-147.90;100.00;59510.75;5011179;28;20046;-88
2021/07/15 02:44:47;;;;;;;5.68;3.45;;;;;;;-147.90;100.00;59510.75;5011215;28;20465;-88
2021/07/15 02:47:14;;;;;;;5.90;3.13;;;;;;;-147.90;100.00;59510.75;5010743;28;21191;-88
2021/07/15 02:49:41;;;;;;;4.68;3.33;;;;;;;-147.90;100.00;59510.75;5011246;28;20046;-88
2021/07/15 02:52:10;;;;;;;5.15;3.40;;;;;;;-147.90;100.00;59510.75;5010186;28;20042;-87
2021/07/15 02:54:39;;;;;;;6.47;4.68;;;;;;;-147.90;100.00;59510.75;5010946;28;20046;-88
2021/07/15 02:57:16;;;;;;;4.50;3.38;;;;;;;-147.90;100.00;59510.75;4985173;28;20536;-88
2021/07/15 02:59:48;;;;;;;5.18;3.28;;;;;;;-147.90;100.00;59510.75;5010477;28;20054;-88
2021/07/15 03:02:22;;;;;;;5.40;3.80;;;;;;;-147.90;100.00;59510.75;5011090;28;20065;-88
2021/07/15 03:04:55;;;;;;;7.10;4.47;;;;;;;-147.90;100.00;59510.75;5010713;28;20064;-88
2021/07/15 03:07:24;;;;;;;4.90;3.13;;;;;;;-147.90;100.00;59510.75;5010825;28;20111;-89
2021/07/15 03:09:55;;;;;;;5.78;3.17;;;;;;;-147.90;100.00;59510.75;5010728;28;20541;-89
2021/07/15 03:12:24;;;;;;;3.95;2.97;;;;;;;-147.90;100.00;59510.75;5011002;28;20049;-89
2021/07/15 03:14:54;;;;;;;5.70;3.28;;;;;;;-147.90;100.00;59510.75;4999982;28;20046;-88
2021/07/15 03:17:25;;;;;;;6.60;4.60;;;;;;;-147.90;100.00;59510.75;4991121;28;20522;-88
2021/07/15 03:19:54;;;;;;;5.90;4.05;;;;;;;-147.90;100.00;59510.75;4991376;28;20054;-88
2021/07/15 03:22:25;;;;;;;7.57;3.78;;;;;;;-147.90;100.00;59510.75;4991206;28;20062;-88
2021/07/15 03:24:56;;;;;;;6.00;3.58;;;;;;;-147.90;100.00;59510.75;4990910;28;20415;-88
2021/07/15 03:27:25;;;;;;;6.82;3.95;;;;;;;-147.90;100.00;59510.75;4991045;28;20058;-88
2021/07/15 03:29:54;;;;;;;5.30;3.25;;;;;;;-147.90;100.00;59510.75;4991573;28;20105;-88
2021/07/15 03:32:22;;;;;;;7.10;3.95;;;;;;;-147.90;100.00;59510.75;4990998;28;20046;-89
2021/07/15 03:34:50;;;;;;;6.30;4.50;;;;;;;-147.90;100.00;59510.75;4991086;28;20046;-88
2021/07/15 03:37:17;;;;;;;7.20;3.83;;;;;;;-147.90;100.00;59510.75;4991117;28;20113;-89
2021/07/15 03:39:47;;;;;;;6.20;4.15;;;;;;;-147.90;100.00;59510.75;4991183;28;20128;-88
2021/07/15 03:42:15;;;;;;;5.75;4.15;;;;;;;-147.90;100.00;59510.75;4991013;28;20097;-88
2021/07/15 03:44:42;;;;;;;21.13;2.58;;;;;;;-147.90;100.00;59510.75;4991089;28;20054;-89
2021/07/15 03:47:11;;;;;;;4.18;3.05;;;;;;;-147.90;100.00;59510.75;4990820;28;20146;-88
2021/07/15 03:49:39;;;;;;;6.35;4.55;;;;;;;-147.90;100.00;59510.75;4990785;28;20058;-88
2021/07/15 03:52:06;;;;;;;5.88;3.42;;;;;;;-147.90;100.00;59510.75;4991061;28;20419;-88
2021/07/15 03:54:33;;;;;;;5.28;3.97;;;;;;;-147.90;100.00;59510.75;4990871;28;20062;-88
2021/07/15 03:57:00;;;;;;;4.15;3.08;;;;;;;-147.90;100.00;59510.75;4990820;28;20053;-88
2021/07/15 03:59:32;;;;;;;5.72;3.67;;;;;;;-147.90;100.00;59510.75;4990706;28;20058;-89
2021/07/15 04:02:04;;;;;;;6.35;4.10;;;;;;;-147.90;100.00;59510.75;4990844;28;20050;-88
2021/07/15 04:04:32;;;;;;;10.30;3.30;;;;;;;-147.90;100.00;59510.75;4994266;28;20058;-88
2021/07/15 04:07:03;;;;;;;4.95;3.10;;;;;;;-147.90;100.00;59510.75;4994235;28;20054;-88
2021/07/15 04:09:31;;;;;;;7.72;3.33;;;;;;;-147.90;100.00;59510.75;4994160;28;20491;-89
2021/07/15 04:11:59;;;;;;;6.00;4.28;;;;;;;-147.90;100.00;59510.75;4994151;28;20058;-89
2021/07/15 04:14:42;;;;;;;5.85;3.35;;;;;;;-147.90;100.00;59510.75;4994085;28;20612;-89
2021/07/15 04:17:12;;;;;;;6.95;4.03;;;;;;;-147.90;100.00;59510.75;4994268;28;20054;-89
2021/07/15 04:19:40;;;;;;;6.70;3.58;;;;;;;-147.90;100.00;59510.75;4994134;28;20054;-89
2021/07/15 04:22:11;;;;;;;5.72;3.40;;;;;;;-147.90;100.00;59510.75;4993882;28;20046;-89
2021/07/15 04:24:40;;;;;;;7.53;3.08;;;;;;;-147.90;100.00;59510.75;4993947;28;20046;-89
2021/07/15 04:27:08;;;;;;;5.85;4.00;;;;;;;-147.90;100.00;59510.75;4994045;28;20062;-87
2021/07/15 04:29:40;;;;;;;6.28;4.00;;;;;;;-147.90;100.00;59510.75;4994043;28;20050;-88
2021/07/15 04:32:13;;;;;;;4.72;2.90;;;;;;;-147.90;100.00;59510.75;4993726;28;20498;-88
2021/07/15 04:34:40;;;;;;;7.57;3.78;;;;;;;-147.90;100.00;59510.75;4993850;28;20058;-88
2021/07/15 04:37:07;;;;;;;10.18;4.40;;;;;;;-147.90;100.00;59510.75;4993680;28;20438;-88
2021/07/15 04:39:35;;;;;;;5.10;3.60;;;;;;;-147.90;100.00;59510.75;4993462;28;20055;-86
2021/07/15 04:42:04;;;;;;;8.25;5.00;;;;;;;-147.90;100.00;59510.75;4993888;28;20407;-85
2021/07/15 04:44:32;;;;;;;10.45;3.53;;;;;;;-147.90;100.00;59510.75;4993528;28;20050;-86
2021/07/15 04:47:02;;;;;;;6.65;3.65;;;;;;;-147.90;100.00;59510.75;4993770;28;20058;-86
2021/07/15 04:49:30;;;;;;;4.40;3.88;;;;;;;-147.90;100.00;59510.75;4993331;28;20051;-85
2021/07/15 04:51:58;;;;;;;17.45;4.13;;;;;;;-147.90;100.00;59510.75;4993461;28;20047;-86
2021/07/15 04:54:26;;;;;;;5.25;3.33;;;;;;;-147.90;100.00;59510.75;4993295;28;20050;-86
2021/07/15 04:56:53;;;;;;;6.57;4.03;;;;;;;-147.90;100.00;59510.75;4993308;28;20050;-85
2021/07/15 04:59:20;;;;;;;4.72;3.20;;;;;;;-147.90;100.00;59510.75;4993404;28;20057;-85
2021/07/15 05:01:47;;;;;;;5.43;3.75;;;;;;;-147.90;100.00;59510.75;4993103;28;20050;-85
2021/07/15 05:04:15;;;;;;;5.35;3.80;;;;;;;-147.90;100.00;59510.75;4990440;28;20514;-84
2021/07/15 05:06:42;;;;;;;6.10;3.42;;;;;;;-147.90;100.00;59510.75;4993098;28;20101;-88
2021/07/15 05:09:09;;;;;;;4.93;3.17;;;;;;;-147.90;100.00;59510.75;4993221;28;20101;-85
2021/07/15 05:11:36;;;;;;;4.85;3.00;;;;;;;-147.90;100.00;59510.75;4993243;28;20100;-85
2021/07/15 05:14:04;;;;;;;5.60;4.47;;;;;;;-147.90;100.00;59510.75;4992534;28;20058;-85
2021/07/15 05:16:31;;;;;;;6.63;4.53;;;;;;;-147.90;100.00;59510.75;4992813;28;20055;-85
2021/07/15 05:18:58;;;;;;;5.22;3.70;;;;;;;-147.90;100.00;59510.75;4992902;28;20483;-85
2021/07/15 05:21:27;;;;;;;5.00;4.05;;;;;;;-147.90;100.00;59510.75;4992671;28;20054;-85
2021/07/15 05:23:53;;;;;;;8.93;4.95;;;;;;;-147.90;100.00;59510.75;4992894;28;20054;-85
2021/07/15 05:26:20;;;;;;;6.95;4.13;;;;;;;-147.90;100.00;59510.75;4992882;28;20058;-85
2021/07/15 05:28:48;;;;;;;6.50;4.22;;;;;;;-147.90;100.00;59510.75;4992730;28;20047;-85
2021/07/15 05:31:15;;;;;;;9.40;3.42;;;;;;;-147.90;100.00;59510.75;4992612;28;20051;-85
2021/07/15 05:33:42;;;;;;;24.90;4.05;;;;;;;-147.90;100.00;59510.75;4992542;28;20054;-86
2021/07/15 05:36:10;;;;;;;6.55;4.50;;;;;;;-147.90;100.00;59510.75;4992608;28;20046;-86
2021/07/15 05:38:38;;;;;;;6.72;4.57;;;;;;;-147.90;100.00;59510.75;4992832;28;20047;-86
2021/07/15 05:41:05;;;;;;;6.10;4.25;;;;;;;-147.90;100.00;59510.75;4992605;28;20051;-86
2021/07/15 05:43:32;;;;;;;7.75;3.88;;;;;;;-147.90;66.74;69923.78;4992526;28;20058;-86
2021/07/15 05:45:59;;;;;;;5.25;2.72;;;;;;;23.51;68.32;93090.97;4992293;28;20046;-85
2021/07/15 05:48:27;;;;;;;7.47;4.15;;;;;;;23.33;68.75;93082.94;4992221;28;20112;-85
2021/07/15 05:50:54;;;;;;;7.70;4.00;;;;;;;23.38;68.88;93076.84;4992283;28;20054;-84
2021/07/15 05:53:21;;;;;;;5.75;3.58;;;;;;;23.49;69.62;93082.66;4992336;28;20446;-86
2021/07/15 05:55:49;;;;;;;5.47;3.85;;;;;;;23.59;68.82;93076.41;4992226;28;20050;-86
2021/07/15 05:58:16;;;;;;;7.75;3.78;;;;;;;23.49;69.59;93070.34;4992195;28;20054;-86
2021/07/15 06:00:43;;;;;;;5.78;3.03;;;;;;;23.73;68.86;93081.63;4992002;28;20056;-87
2021/07/15 06:03:09;;;;;;;6.32;3.75;;;;;;;23.89;67.79;93077.59;4991885;28;20055;-87
2021/07/15 06:05:36;;;;;;;3.53;2.95;;;;;;;24.22;66.91;93065.38;4992139;28;20100;-87
2021/07/15 06:08:03;;;;;;;5.72;3.85;;;;;;;24.55;66.18;93068.50;4991889;28;20051;-87
2021/07/15 06:10:30;;;;;;;4.93;3.58;;;;;;;24.79;65.25;93070.00;4999643;28;20096;-87
2021/07/15 06:12:59;;;;;;;5.00;2.67;;;;;;;25.08;64.63;93070.59;5001233;28;20050;-87
2021/07/15 06:15:26;;;;;;;4.22;3.10;;;;;;;25.33;63.04;93066.47;4999870;28;20038;-85
2021/07/15 06:17:53;;;;;;;5.72;3.75;;;;;;;25.60;62.28;93064.69;5001844;28;20065;-86
2021/07/15 06:20:19;;;;;;;5.07;3.17;;;;;;;25.83;61.09;93066.44;5001309;28;20050;-87
2021/07/15 06:22:46;;;;;;;5.72;4.10;;;;;;;25.92;60.94;93061.94;5005566;28;20429;-87
2021/07/15 06:25:15;;;;;;;4.80;3.13;;;;;;;26.07;61.08;93057.28;5003675;28;20108;-88
2021/07/15 06:27:42;;;;;;;4.95;2.70;;;;;;;26.37;59.78;93054.78;5002316;28;20053;-89
2021/07/15 06:30:13;;;;;;;5.50;4.22;;;;;;;26.71;58.42;93055.03;4999992;28;20046;-87
2021/07/15 06:32:40;;;;;;;7.55;5.30;;;;;;;27.08;57.86;93055.38;5000783;28;20046;-88
2021/07/15 06:35:08;;;;;;;5.72;2.78;;;;;;;27.44;56.48;93051.44;5002482;28;20418;-88
2021/07/15 06:37:37;;;;;;;7.10;4.18;;;;;;;27.70;54.47;93049.75;5001825;28;20132;-87
2021/07/15 06:40:07;;;;;;;9.73;3.88;;;;;;;27.85;53.86;93041.25;4998333;28;20869;-88
2021/07/15 06:42:35;;;;;;;9.85;3.33;;;;;;;28.26;53.01;93030.22;5005778;28;20105;-88
2021/07/15 06:45:02;;;;;;;5.45;2.65;;;;;;;28.66;51.84;93039.44;5011043;28;20494;-87
2021/07/15 06:47:30;;;;;;;4.25;2.65;;;;;;;28.67;50.59;93033.06;5010811;28;20050;-88
2021/07/15 06:49:57;;;;;;;4.50;3.35;;;;;;;28.49;50.88;93038.53;5011035;28;20096;-88
2021/07/15 06:52:27;;;;;;;11.15;4.32;;;;;;;28.61;50.96;93034.38;5004849;28;20187;-87
2021/07/15 06:54:56;;;;;;;5.68;3.45;;;;;;;28.83;49.83;93030.53;4991358;28;20500;-85
2021/07/15 06:57:23;;;;;;;3.90;3.05;;;;;;;28.80;50.21;93034.59;4991265;28;20050;-86
2021/07/15 06:59:49;;;;;;;4.80;2.70;;;;;;;29.06;50.03;93035.41;4991482;28;20050;-85
2021/07/15 07:02:16;;;;;;;7.43;3.20;;;;;;;29.47;49.07;93024.88;4991724;28;20050;-87
2021/07/15 07:04:44;;;;;;;8.85;3.88;;;;;;;29.85;47.80;93021.06;4991284;28;20487;-86
2021/07/15 07:07:11;;;;;;;3.88;3.05;;;;;;;30.06;46.64;93022.75;5009883;28;20050;-87
2021/07/15 07:09:38;;;;;;;4.55;3.38;;;;;;;29.95;46.70;93019.81;5010536;28;20057;-88
2021/07/15 07:12:05;;;;;;;4.72;3.30;;;;;;;30.38;46.97;93019.44;5011122;28;20461;-87
2021/07/15 07:14:33;;;;;;;6.00;3.20;;;;;;;30.86;46.10;93014.16;5010985;28;20050;-86
2021/07/15 07:16:59;;;;;;;4.47;3.13;;;;;;;-147.90;100.00;59510.75;5010864;28;20418;-87
2021/07/15 07:19:26;;;;;;;4.43;3.20;;;;;;;-147.90;100.00;59510.75;5010866;28;20065;-87
2021/07/15 07:21:54;;;;;;;5.18;3.05;;;;;;;-147.90;100.00;59510.75;4327887;28;20001460;-87
2021/07/15 07:24:21;;;;;;;7.40;2.95;;;;;;;-147.90;100.00;59510.75;5030366;28;20394;-84
2021/07/15 07:26:48;;;;;;;5.90;3.35;;;;;;;-147.90;100.00;59510.75;5030468;28;20053;-86
2021/07/15 07:29:15;;;;;;;4.53;3.10;;;;;;;32.31;41.13;93005.00;5030267;28;20417;-87
2021/07/15 07:31:42;;;;;;;4.25;2.92;;;;;;;32.55;41.96;92997.81;5030315;28;20053;-87
2021/07/15 07:34:08;;;;;;;5.38;3.88;;;;;;;32.63;41.19;92992.25;5030406;28;20055;-87
2021/07/15 07:36:35;;;;;;;5.10;3.20;;;;;;;32.69;40.51;92997.28;5030354;28;20060;-87
2021/07/15 07:39:04;;;;;;;4.82;3.60;;;;;;;32.83;40.12;92991.41;5032806;28;20104;-87
2021/07/15 07:41:31;;;;;;;5.05;3.65;;;;;;;32.44;42.07;92989.69;5034182;28;20107;-85
2021/07/15 07:43:58;;;;;;;5.25;3.40;;;;;;;32.83;40.77;92986.88;5033947;28;20460;-86
2021/07/15 07:46:25;;;;;;;4.50;2.63;;;;;;;33.06;40.25;92988.75;5033801;28;20053;-85
2021/07/15 07:48:52;;;;;;;3.65;2.95;;;;;;;33.12;39.27;92986.53;5033857;28;20053;-87
2021/07/15 07:51:19;;;;;;;4.85;2.92;;;;;;;32.82;40.76;92987.22;5033827;28;20096;-86
2021/07/15 07:53:46;;;;;;;5.00;3.25;;;;;;;32.30;40.65;92987.53;5034052;28;20049;-86
2021/07/15 07:56:16;;;;;;;6.03;3.05;;;;;;;32.29;39.96;92996.63;5033840;28;20053;-86
2021/07/15 07:58:43;;;;;;;5.65;2.67;;;;;;;32.51;40.33;92985.25;5033744;28;20053;-87
2021/07/15 08:01:10;;;;;;;7.97;3.88;;;;;;;32.99;40.98;92989.41;5033352;28;20049;-86
2021/07/15 08:03:37;;;;;;;8.10;4.03;;;;;;;33.40;39.50;92988.06;5033653;28;20053;-86
2021/07/15 08:06:03;;;;;;;7.55;3.17;;;;;;;33.64;38.01;92988.78;5033865;28;20056;-87
2021/07/15 08:08:30;;;;;;;3.95;2.33;;;;;;;33.74;35.53;92982.81;5033751;28;20509;-85
2021/07/15 08:10:57;;;;;;;6.57;3.15;;;;;;;33.47;37.74;92988.16;5033735;28;20046;-86
2021/07/15 08:13:25;;;;;;;3.75;2.72;;;;;;;33.82;38.50;92975.66;5033508;28;20490;-87
2021/07/15 08:15:52;;;;;;;3.65;2.75;;;;;;;33.78;38.81;92974.88;5033449;28;20076;-86
2021/07/15 08:18:19;;;;;;;5.15;3.17;;;;;;;34.12;38.29;92972.19;5033239;28;20111;-87
2021/07/15 08:20:46;;;;;;;4.50;3.30;;;;;;;34.48;37.92;92971.75;5033269;28;20045;-87
2021/07/15 08:23:13;;;;;;;6.05;4.10;;;;;;;34.74;37.65;92967.41;5033102;28;20053;-86
2021/07/15 08:25:40;;;;;;;5.35;3.30;;;;;;;34.67;37.00;92962.03;5033146;28;20046;-87
2021/07/15 08:28:06;;;;;;;4.90;2.92;;;;;;;34.48;36.90;92963.75;5033430;28;20490;-86
2021/07/15 08:30:35;;;;;;;3.88;2.55;;;;;;;34.77;36.97;92964.78;5027336;28;20045;-86
2021/07/15 08:33:03;;;;;;;5.70;3.17;;;;;;;34.96;36.25;92960.31;5032744;28;20092;-86
2021/07/15 08:35:32;;;;;;;7.30;3.50;;;;;;;35.01;33.82;92962.66;5033076;28;20150;-84
2021/07/15 08:38:00;;;;;;;5.05;3.42;;;;;;;35.03;34.59;92954.28;5033236;28;20057;-86
2021/07/15 08:40:28;;;;;;;4.47;3.08;;;;;;;35.17;34.93;92935.69;5033036;28;20111;-85
2021/07/15 08:42:55;;;;;;;4.28;2.47;;;;;;;35.50;34.12;92951.09;5032855;28;20045;-85
2021/07/15 08:45:22;;;;;;;5.38;3.00;;;;;;;35.26;33.18;92942.59;5032712;28;20052;-85
2021/07/15 08:47:51;;;;;;;5.65;3.72;;;;;;;35.26;34.18;92956.69;5026852;28;20053;-86
2021/07/15 08:50:20;;;;;;;7.00;3.05;;;;;;;35.49;33.70;92952.25;5012015;28;20053;-86
2021/07/15 08:52:47;;;;;;;5.10;3.17;;;;;;;35.79;32.57;92957.34;5013082;28;20053;-85
2021/07/15 08:58:01;;;;;;;4.90;2.83;;;;;;;36.15;32.57;92947.91;4987221;28;20057;-85
2021/07/15 09:00:28;;;;;;;4.78;3.40;;;;;;;36.22;32.09;92950.56;5013009;28;20045;-85
2021/07/15 09:02:56;;;;;;;4.82;3.70;;;;;;;-147.90;100.00;59510.75;5012927;28;20104;-85
2021/07/15 09:05:23;;;;;;;3.65;2.60;;;;;;;-147.90;100.00;59510.75;5012795;28;20046;-84
2021/07/15 09:07:51;;;;;;;5.43;2.78;;;;;;;-147.90;100.00;59510.75;5012727;28;20050;-88
2021/07/15 09:10:18;;;;;;;3.65;2.90;;;;;;;-147.90;100.00;59510.75;5012596;28;20064;-85
2021/07/15 09:12:44;;;;;;;4.45;2.47;;;;;;;-147.90;100.00;59510.75;5012921;28;20104;-85
2021/07/15 09:15:14;;;;;;;7.18;3.97;;;;;;;-147.90;100.00;59510.75;5012560;28;20426;-85
2021/07/15 09:17:41;;;;;;;4.47;2.72;;;;;;;-147.90;100.00;59510.75;5012399;28;20050;-85
2021/07/15 09:20:16;;;;;;;7.15;2.30;;;;;;;-147.90;100.00;59510.75;5012945;28;20049;-84
2021/07/15 09:23:01;;;;;;;3.70;2.65;;;;;;;-147.90;100.00;59510.75;5012460;28;20137;-85
2021/07/15 09:25:51;;;;;;;4.03;3.05;;;;;;;-147.90;100.00;59510.75;5027668;28;20060;-85
2021/07/15 09:28:26;;;;;;;5.75;3.28;;;;;;;-147.90;100.00;59510.75;5031898;28;20521;-84
2021/07/15 09:30:53;;;;;;;4.68;2.78;;;;;;;-147.90;100.00;59510.75;5031975;28;20465;-85
2021/07/15 09:33:20;;;;;;;5.13;3.38;;;;;;;-147.90;100.00;59510.75;5031806;28;20057;-84
2021/07/15 09:35:49;;;;;;;3.92;3.20;;;;;;;-147.90;100.00;59510.75;5032094;28;20061;-83
2021/07/15 09:38:18;;;;;;;7.05;2.88;;;;;;;-147.90;100.00;59510.75;5032135;28;20060;-84
2021/07/15 09:40:48;;;;;;;3.65;2.70;;;;;;;-147.90;100.00;59510.75;5031834;28;20056;-83
2021/07/15 09:43:17;;;;;;;5.03;2.58;;;;;;;-147.90;100.00;59510.75;5031878;28;20422;-84
2021/07/15 09:45:45;;;;;;;5.45;2.92;;;;;;;-147.90;100.00;59510.75;5031784;28;20049;-86
2021/07/15 09:48:19;;;;;;;5.15;2.90;;;;;;;-147.90;100.00;59510.75;5031734;28;20049;-85
2021/07/15 09:50:48;;;;;;;;;;;;;;;-147.90;100.00;59510.75;5032106;28;20057;-85
2021/07/15 09:53:20;;;;;;;4.78;3.15;;;;;;;-147.90;100.00;59510.75;5031781;28;20408;-85
2021/07/15 09:55:48;;;;;;;12.93;4.22;;;;;;;-147.90;100.00;59510.75;5031746;28;20136;-84
2021/07/15 09:58:15;;;;;;;6.30;3.85;;;;;;;-147.90;100.00;59510.75;5031510;28;20049;-84
2021/07/15 10:00:44;;;;;;;5.80;3.65;;;;;;;-147.90;100.00;59510.75;5031349;28;20172;-84
2021/07/15 10:03:12;;;;;;;3.33;2.13;;;;;;;-147.90;100.00;59510.75;5031381;28;20489;-85
2021/07/15 10:05:51;;;;;;;4.90;3.10;;;;;;;-147.90;100.00;59510.75;5031518;28;20418;-83
2021/07/15 10:08:24;;;;;;;3.95;2.85;;;;;;;-147.90;100.00;59510.75;5031721;28;20540;-83
2021/07/15 10:10:52;;;;;;;4.95;3.42;;;;;;;-147.90;100.00;59510.75;5031595;28;20596;-84
2021/07/15 10:13:20;;;;;;;5.40;3.92;;;;;;;-147.90;100.00;59510.75;5031444;28;20057;-83
2021/07/15 10:15:48;;;;;;;7.03;3.28;;;;;;;-147.90;100.00;59510.75;5031480;28;20049;-83
2021/07/15 10:18:35;;;;;;;8.52;3.90;;;;;;;-147.90;100.00;59510.75;5015792;28;20045;-86
2021/07/15 10:21:02;;;;;;;5.43;3.88;;;;;;;-147.90;100.00;59510.75;5011286;28;20493;-85
2021/07/15 10:23:35;;;;;;;4.32;2.97;;;;;;;-147.90;100.00;59510.75;5011152;28;20540;-82
2021/07/15 10:26:03;;;;;;;5.60;3.28;;;;;;;-147.90;100.00;59510.75;5030780;28;20512;-83
2021/07/15 10:28:30;;;;;;;4.95;3.20;;;;;;;-147.90;100.00;59510.75;5031198;28;20045;-85
2021/07/15 10:30:59;;;;;;;5.22;3.53;;;;;;;-147.90;100.00;59510.75;5030969;28;20568;-86
2021/07/15 10:33:26;;;;;;;6.28;4.05;;;;;;;-147.90;100.00;59510.75;5030906;28;20489;-85
2021/07/15 10:35:53;;;;;;;5.15;3.92;;;;;;;-147.90;100.00;59510.75;5030703;28;20060;-85
2021/07/15 10:38:22;;;;;;;5.90;3.45;;;;;;;-147.90;100.00;59510.75;5030628;28;20545;-85
2021/07/15 10:40:51;;;;;;;4.65;3.38;;;;;;;-147.90;100.00;59510.75;5031161;28;20042;-81
2021/07/15 10:43:18;;;;;;;4.13;3.17;;;;;;;-147.90;100.00;59510.75;5031053;28;20050;-81
2021/07/15 10:45:46;;;;;;;4.30;3.17;;;;;;;35.04;33.08;92868.47;5030808;28;20053;-83
2021/07/15 10:48:15;;;;;;;3.30;3.00;;;;;;;34.71;34.23;92883.53;5030685;28;20091;-84
2021/07/15 10:50:42;;;;;;;5.35;4.20;;;;;;;34.39;34.91;92874.16;5030648;28;20060;-83
2021/07/15 10:53:10;;;;;;;8.73;3.28;;;;;;;35.05;34.90;92883.38;5030685;28;20049;-82
2021/07/15 10:55:38;;;;;;;4.15;2.95;;;;;;;36.00;33.81;92877.59;5030744;28;20540;-84
2021/07/15 10:58:06;;;;;;;6.07;3.97;;;;;;;36.17;32.21;92865.38;5030403;28;20049;-85
2021/07/15 11:00:33;;;;;;;4.60;2.78;;;;;;;35.58;33.08;92873.28;5030683;28;20088;-83
2021/07/15 11:03:15;;;;;;;4.57;3.50;;;;;;;35.09;34.07;92862.03;5029762;28;20050;-85
2021/07/15 11:05:50;;;;;;;11.18;5.05;;;;;;;35.36;33.29;92861.78;5030788;28;20048;-85
2021/07/15 11:08:19;;;;;;;4.85;3.47;;;;;;;35.66;33.50;92862.63;5030442;28;20046;-84
2021/07/15 11:10:59;;;;;;;5.82;3.53;;;;;;;36.32;33.04;92858.16;5030508;28;20140;-86
2021/07/15 11:13:29;;;;;;;7.55;3.55;;;;;;;36.68;31.73;92860.03;5032619;28;20042;-84
2021/07/15 11:15:57;;;;;;;4.88;3.42;;;;;;;36.90;32.14;92861.53;5034732;28;20124;-79
2021/07/15 11:18:48;;;;;;;5.50;3.75;;;;;;;37.09;32.03;92854.19;5033854;28;20504;-83
2021/07/15 11:21:34;;;;;;;5.75;3.38;;;;;;;37.25;30.42;92847.66;5034271;28;20059;-82
2021/07/15 11:24:52;;;;;;;5.50;3.33;;;;;;;-147.90;100.00;59510.75;5034584;28;20049;-84
2021/07/15 11:27:37;;;;;;;6.72;3.63;;;;;;;-147.90;100.00;59510.75;5034178;28;20045;-85
2021/07/15 11:30:09;;;;;;;3.97;2.78;;;;;;;-147.90;100.00;59510.75;5034136;28;20506;-81